sensor_id;sensor_type;location;lat;lon;timestamp;pressure;altitude;pressure_sealevel;temperature;humidity
21623;BME280;10973;46.706;12.340;2023-01-29T00:00:10;87557.13;;;-6.66;50.94
21623;BME280;10973;46.706;12.340;2023-01-29T00:02:38;87554.00;;;-6.63;51.58
21623;BME280;10973;46.706;12.340;2023-01-29T00:05:06;87553.75;;;-6.62;50.76
21623;BME280;10973;46.706;12.340;2023-01-29T00:07:53;87547.66;;;-6.66;51.35
21623;BME280;10973;46.706;12.340;2023-01-29T00:10:20;87544.81;;;-6.64;51.38
21623;BME280;10973;46.706;12.340;2023-01-29T00:12:47;87545.09;;;-6.66;51.17
21623;BME280;10973;46.706;12.340;2023-01-29T00:15:15;87548.66;;;-6.67;51.25
21623;BME280;10973;46.706;12.340;2023-01-29T00:17:42;87551.19;;;-6.62;51.73
21623;BME280;10973;46.706;12.340;2023-01-29T00:20:10;87551.19;;;-6.62;52.04
21623;BME280;10973;46.706;12.340;2023-01-29T00:22:38;87552.47;;;-6.59;51.81
21623;BME280;10973;46.706;12.340;2023-01-29T00:25:06;87551.19;;;-6.57;51.42
21623;BME280;10973;46.706;12.340;2023-01-29T00:27:33;87550.38;;;-6.52;51.74
21623;BME280;10973;46.706;12.340;2023-01-29T00:30:00;87552.94;;;-6.52;51.77
21623;BME280;10973;46.706;12.340;2023-01-29T00:32:27;87552.41;;;-6.54;51.48
21623;BME280;10973;46.706;12.340;2023-01-29T00:34:55;87551.97;;;-6.61;51.07
21623;BME280;10973;46.706;12.340;2023-01-29T00:37:22;87543.81;;;-6.68;51.17
21623;BME280;10973;46.706;12.340;2023-01-29T00:39:49;87554.56;;;-6.66;50.92
21623;BME280;10973;46.706;12.340;2023-01-29T00:42:17;87562.75;;;-6.64;51.31
21623;BME280;10973;46.706;12.340;2023-01-29T00:44:44;87563.53;;;-6.69;51.49
21623;BME280;10973;46.706;12.340;2023-01-29T00:47:11;87562.38;;;-6.86;50.40
21623;BME280;10973;46.706;12.340;2023-01-29T00:49:38;87562.13;;;-6.90;50.85
21623;BME280;10973;46.706;12.340;2023-01-29T00:52:05;87557.28;;;-6.91;50.85
21623;BME280;10973;46.706;12.340;2023-01-29T00:54:45;87561.59;;;-6.87;50.86
21623;BME280;10973;46.706;12.340;2023-01-29T00:57:12;87563.66;;;-6.89;51.12
21623;BME280;10973;46.706;12.340;2023-01-29T00:59:40;87569.59;;;-6.93;50.67
21623;BME280;10973;46.706;12.340;2023-01-29T01:02:07;87572.91;;;-6.93;51.18
21623;BME280;10973;46.706;12.340;2023-01-29T01:04:35;87571.66;;;-6.95;51.18
21623;BME280;10973;46.706;12.340;2023-01-29T01:07:04;87577.00;;;-6.92;50.59
21623;BME280;10973;46.706;12.340;2023-01-29T01:09:35;87575.75;;;-6.99;51.64
21623;BME280;10973;46.706;12.340;2023-01-29T01:12:02;87586.03;;;-7.04;51.65
21623;BME280;10973;46.706;12.340;2023-01-29T01:14:29;87592.44;;;-7.02;51.21
21623;BME280;10973;46.706;12.340;2023-01-29T01:16:56;87589.41;;;-7.14;51.07
21623;BME280;10973;46.706;12.340;2023-01-29T01:19:23;87594.53;;;-7.14;50.81
21623;BME280;10973;46.706;12.340;2023-01-29T01:21:51;87586.06;;;-7.09;51.24
21623;BME280;10973;46.706;12.340;2023-01-29T01:24:18;87588.09;;;-7.06;51.05
21623;BME280;10973;46.706;12.340;2023-01-29T01:26:45;87589.09;;;-7.02;51.86
21623;BME280;10973;46.706;12.340;2023-01-29T01:29:12;87581.66;;;-7.04;51.73
21623;BME280;10973;46.706;12.340;2023-01-29T01:31:39;87580.88;;;-6.99;51.85
21623;BME280;10973;46.706;12.340;2023-01-29T01:34:07;87584.19;;;-6.94;52.29
21623;BME280;10973;46.706;12.340;2023-01-29T01:36:34;87589.53;;;-6.90;52.61
21623;BME280;10973;46.706;12.340;2023-01-29T01:39:02;87584.88;;;-6.83;52.17
21623;BME280;10973;46.706;12.340;2023-01-29T01:41:30;87580.00;;;-6.80;52.79
21623;BME280;10973;46.706;12.340;2023-01-29T01:44:02;87582.78;;;-6.76;52.81
21623;BME280;10973;46.706;12.340;2023-01-29T01:46:35;87574.59;;;-6.73;52.66
21623;BME280;10973;46.706;12.340;2023-01-29T01:49:10;87570.25;;;-6.73;52.55
21623;BME280;10973;46.706;12.340;2023-01-29T01:51:46;87576.88;;;-6.72;52.92
21623;BME280;10973;46.706;12.340;2023-01-29T01:54:24;87569.19;;;-6.72;52.83
21623;BME280;10973;46.706;12.340;2023-01-29T01:56:59;87562.31;;;-6.76;53.08
21623;BME280;10973;46.706;12.340;2023-01-29T01:59:32;87560.28;;;-6.79;53.42
21623;BME280;10973;46.706;12.340;2023-01-29T02:02:00;87566.63;;;-6.72;52.11
21623;BME280;10973;46.706;12.340;2023-01-29T02:04:27;87569.69;;;-6.70;52.78
21623;BME280;10973;46.706;12.340;2023-01-29T02:06:57;87568.66;;;-6.64;52.88
21623;BME280;10973;46.706;12.340;2023-01-29T02:09:57;87572.19;;;-6.60;53.06
21623;BME280;10973;46.706;12.340;2023-01-29T02:12:21;87576.81;;;-6.57;52.99
21623;BME280;10973;46.706;12.340;2023-01-29T02:14:50;87580.09;;;-6.56;52.77
21623;BME280;10973;46.706;12.340;2023-01-29T02:17:19;87574.00;;;-6.60;52.91
21623;BME280;10973;46.706;12.340;2023-01-29T02:29:17;87597.66;;;-6.78;52.28
21623;BME280;10973;46.706;12.340;2023-01-29T02:32:13;87601.03;;;-6.83;52.67
21623;BME280;10973;46.706;12.340;2023-01-29T02:35:22;87610.81;;;-6.95;52.90
21623;BME280;10973;46.706;12.340;2023-01-29T02:38:00;87615.19;;;-7.00;51.99
21623;BME280;10973;46.706;12.340;2023-01-29T02:40:51;87610.59;;;-7.03;52.47
21623;BME280;10973;46.706;12.340;2023-01-29T02:43:30;87614.69;;;-6.97;52.39
21623;BME280;10973;46.706;12.340;2023-01-29T02:46:34;87607.00;;;-6.97;52.77
21623;BME280;10973;46.706;12.340;2023-01-29T02:49:34;87617.19;;;-6.92;52.98
21623;BME280;10973;46.706;12.340;2023-01-29T02:52:18;87609.03;;;-6.99;53.10
21623;BME280;10973;46.706;12.340;2023-01-29T02:54:57;87612.63;;;-6.95;53.07
21623;BME280;10973;46.706;12.340;2023-01-29T02:57:35;87606.66;;;-6.86;52.99
21623;BME280;10973;46.706;12.340;2023-01-29T03:00:14;87607.63;;;-6.72;53.34
21623;BME280;10973;46.706;12.340;2023-01-29T03:03:13;87613.03;;;-6.78;53.45
21623;BME280;10973;46.706;12.340;2023-01-29T03:06:13;87608.19;;;-6.80;52.96
21623;BME280;10973;46.706;12.340;2023-01-29T03:08:46;87605.41;;;-6.88;53.11
21623;BME280;10973;46.706;12.340;2023-01-29T03:11:17;87613.34;;;-6.90;52.89
21623;BME280;10973;46.706;12.340;2023-01-29T03:14:01;87614.13;;;-6.94;53.12
21623;BME280;10973;46.706;12.340;2023-01-29T03:16:50;87614.91;;;-6.94;52.43
21623;BME280;10973;46.706;12.340;2023-01-29T03:19:42;87609.56;;;-6.97;52.47
21623;BME280;10973;46.706;12.340;2023-01-29T03:22:13;87614.50;;;-7.11;51.89
21623;BME280;10973;46.706;12.340;2023-01-29T03:24:49;87615.78;;;-7.13;51.97
21623;BME280;10973;46.706;12.340;2023-01-29T03:27:23;87618.88;;;-7.21;52.29
21623;BME280;10973;46.706;12.340;2023-01-29T03:29:55;87621.69;;;-7.23;52.64
21623;BME280;10973;46.706;12.340;2023-01-29T03:32:26;87632.22;;;-7.35;51.80
21623;BME280;10973;46.706;12.340;2023-01-29T03:35:00;87631.94;;;-7.28;52.30
21623;BME280;10973;46.706;12.340;2023-01-29T03:37:40;87639.34;;;-7.27;52.39
21623;BME280;10973;46.706;12.340;2023-01-29T03:40:10;87639.34;;;-7.27;52.13
21623;BME280;10973;46.706;12.340;2023-01-29T03:43:33;87647.06;;;-7.32;52.67
21623;BME280;10973;46.706;12.340;2023-01-29T03:46:12;87642.72;;;-7.36;52.14
21623;BME280;10973;46.706;12.340;2023-01-29T03:48:52;87635.34;;;-7.48;51.76
21623;BME280;10973;46.706;12.340;2023-01-29T03:57:01;87642.47;;;-7.40;52.59
21623;BME280;10973;46.706;12.340;2023-01-29T03:59:43;87645.28;;;-7.41;52.11
21623;BME280;10973;46.706;12.340;2023-01-29T04:02:22;87639.41;;;-7.42;51.92
21623;BME280;10973;46.706;12.340;2023-01-29T04:04:55;87645.03;;;-7.45;52.17
21623;BME280;10973;46.706;12.340;2023-01-29T04:07:25;87642.22;;;-7.43;52.64
21623;BME280;10973;46.706;12.340;2023-01-29T04:10:00;87640.19;;;-7.41;52.48
21623;BME280;10973;46.706;12.340;2023-01-29T04:12:44;87642.47;;;-7.45;52.40
21623;BME280;10973;46.706;12.340;2023-01-29T04:15:16;87632.00;;;-7.43;52.75
21623;BME280;10973;46.706;12.340;2023-01-29T04:17:52;87635.31;;;-7.43;52.29
21623;BME280;10973;46.706;12.340;2023-01-29T04:20:20;87622.00;;;-7.40;52.27
21623;BME280;10973;46.706;12.340;2023-01-29T04:22:49;87633.00;;;-7.44;52.44
21623;BME280;10973;46.706;12.340;2023-01-29T04:25:25;87628.41;;;-7.47;52.11
21623;BME280;10973;46.706;12.340;2023-01-29T04:28:27;87635.34;;;-7.58;52.29
21623;BME280;10973;46.706;12.340;2023-01-29T04:31:09;87639.19;;;-7.60;51.58
21623;BME280;10973;46.706;12.340;2023-01-29T04:37:25;87625.88;;;-7.57;52.03
21623;BME280;10973;46.706;12.340;2023-01-29T04:40:20;87621.53;;;-7.57;52.54
21623;BME280;10973;46.706;12.340;2023-01-29T04:43:08;87620.00;;;-7.58;53.08
21623;BME280;10973;46.706;12.340;2023-01-29T04:48:31;87618.72;;;-7.55;52.20
21623;BME280;10973;46.706;12.340;2023-01-29T04:51:23;87617.72;;;-7.59;52.80
21623;BME280;10973;46.706;12.340;2023-01-29T04:54:21;87619.75;;;-7.61;52.16
21623;BME280;10973;46.706;12.340;2023-01-29T04:56:55;87631.03;;;-7.72;51.57
21623;BME280;10973;46.706;12.340;2023-01-29T04:59:38;87628.25;;;-7.86;51.20
21623;BME280;10973;46.706;12.340;2023-01-29T05:02:09;87627.22;;;-7.85;51.82
21623;BME280;10973;46.706;12.340;2023-01-29T05:04:40;87626.72;;;-7.87;51.53
21623;BME280;10973;46.706;12.340;2023-01-29T05:07:13;87628.25;;;-7.86;51.14
21623;BME280;10973;46.706;12.340;2023-01-29T05:09:44;87627.97;;;-7.84;51.80
21623;BME280;10973;46.706;12.340;2023-01-29T05:12:14;87624.16;;;-7.82;51.81
21623;BME280;10973;46.706;12.340;2023-01-29T05:14:45;87619.53;;;-7.80;52.06
21623;BME280;10973;46.706;12.340;2023-01-29T05:17:17;87630.78;;;-7.81;52.31
21623;BME280;10973;46.706;12.340;2023-01-29T05:19:47;87633.09;;;-7.79;52.50
21623;BME280;10973;46.706;12.340;2023-01-29T05:22:17;87628.22;;;-7.81;52.91
21623;BME280;10973;46.706;12.340;2023-01-29T05:24:45;87617.72;;;-7.74;52.34
21623;BME280;10973;46.706;12.340;2023-01-29T05:27:24;87616.72;;;-7.68;52.47
21623;BME280;10973;46.706;12.340;2023-01-29T05:29:55;87621.56;;;-7.67;52.14
21623;BME280;10973;46.706;12.340;2023-01-29T05:32:22;87616.94;;;-7.65;52.08
21623;BME280;10973;46.706;12.340;2023-01-29T05:34:49;87619.50;;;-7.70;51.65
21623;BME280;10973;46.706;12.340;2023-01-29T05:37:17;87625.94;;;-7.77;51.87
21623;BME280;10973;46.706;12.340;2023-01-29T05:39:44;87620.81;;;-7.77;52.21
21623;BME280;10973;46.706;12.340;2023-01-29T05:42:11;87614.66;;;-7.76;52.07
21623;BME280;10973;46.706;12.340;2023-01-29T05:44:38;87614.41;;;-7.75;52.08
21623;BME280;10973;46.706;12.340;2023-01-29T05:47:06;87610.81;;;-7.74;52.42
21623;BME280;10973;46.706;12.340;2023-01-29T05:49:33;87619.81;;;-7.81;51.75
21623;BME280;10973;46.706;12.340;2023-01-29T05:52:01;87610.34;;;-7.91;51.49
21623;BME280;10973;46.706;12.340;2023-01-29T05:54:28;87612.38;;;-7.88;52.05
21623;BME280;10973;46.706;12.340;2023-01-29T05:56:55;87611.88;;;-7.85;51.66
21623;BME280;10973;46.706;12.340;2023-01-29T05:59:22;87621.59;;;-7.87;52.18
21623;BME280;10973;46.706;12.340;2023-01-29T06:01:50;87633.88;;;-7.99;51.98
21623;BME280;10973;46.706;12.340;2023-01-29T06:04:17;87625.69;;;-8.06;51.07
21623;BME280;10973;46.706;12.340;2023-01-29T06:06:45;87626.22;;;-8.04;50.66
21623;BME280;10973;46.706;12.340;2023-01-29T06:09:14;87629.28;;;-8.02;51.03
21623;BME280;10973;46.706;12.340;2023-01-29T06:11:42;87630.28;;;-8.03;51.15
21623;BME280;10973;46.706;12.340;2023-01-29T06:14:09;87637.69;;;-8.02;51.47
21623;BME280;10973;46.706;12.340;2023-01-29T06:16:37;87637.22;;;-8.14;51.48
21623;BME280;10973;46.706;12.340;2023-01-29T06:19:04;87646.66;;;-8.14;51.51
21623;BME280;10973;46.706;12.340;2023-01-29T06:21:31;87649.47;;;-8.11;51.55
21623;BME280;10973;46.706;12.340;2023-01-29T06:23:58;87657.66;;;-8.09;51.46
21623;BME280;10973;46.706;12.340;2023-01-29T06:26:26;87660.72;;;-8.07;51.78
21623;BME280;10973;46.706;12.340;2023-01-29T06:28:53;87669.66;;;-8.19;50.88
21623;BME280;10973;46.706;12.340;2023-01-29T06:31:23;87674.00;;;-8.20;51.46
21623;BME280;10973;46.706;12.340;2023-01-29T06:34:06;87681.44;;;-8.18;51.34
21623;BME280;10973;46.706;12.340;2023-01-29T06:36:34;87687.56;;;-8.14;51.49
21623;BME280;10973;46.706;12.340;2023-01-29T06:39:03;87689.09;;;-8.18;51.75
21623;BME280;10973;46.706;12.340;2023-01-29T06:41:30;87694.72;;;-8.16;51.49
21623;BME280;10973;46.706;12.340;2023-01-29T06:43:58;87709.53;;;-8.18;51.74
21623;BME280;10973;46.706;12.340;2023-01-29T06:46:25;87698.81;;;-8.20;50.93
21623;BME280;10973;46.706;12.340;2023-01-29T06:48:53;87705.94;;;-8.17;51.07
21623;BME280;10973;46.706;12.340;2023-01-29T06:51:20;87711.31;;;-8.19;51.58
21623;BME280;10973;46.706;12.340;2023-01-29T06:53:47;87713.38;;;-8.11;51.74
21623;BME280;10973;46.706;12.340;2023-01-29T06:56:15;87717.22;;;-8.08;51.55
21623;BME280;10973;46.706;12.340;2023-01-29T06:58:42;87714.16;;;-8.05;51.95
21623;BME280;10973;46.706;12.340;2023-01-29T07:01:11;87720.56;;;-8.03;51.69
21623;BME280;10973;46.706;12.340;2023-01-29T07:03:58;87722.84;;;-8.06;51.54
21623;BME280;10973;46.706;12.340;2023-01-29T07:06:29;87711.59;;;-8.05;51.43
21623;BME280;10973;46.706;12.340;2023-01-29T07:08:57;87718.75;;;-8.07;51.61
21623;BME280;10973;46.706;12.340;2023-01-29T07:11:24;87710.31;;;-8.08;51.86
21623;BME280;10973;46.706;12.340;2023-01-29T07:13:51;87713.88;;;-8.04;51.68
21623;BME280;10973;46.706;12.340;2023-01-29T07:16:19;87717.72;;;-8.11;51.81
21623;BME280;10973;46.706;12.340;2023-01-29T07:18:46;87711.06;;;-8.17;51.74
21623;BME280;10973;46.706;12.340;2023-01-29T07:21:14;87712.88;;;-8.18;52.08
21623;BME280;10973;46.706;12.340;2023-01-29T07:23:41;87716.69;;;-8.15;52.06
21623;BME280;10973;46.706;12.340;2023-01-29T07:26:10;87716.47;;;-8.09;52.22
21623;BME280;10973;46.706;12.340;2023-01-29T07:28:38;87719.00;;;-8.14;51.65
21623;BME280;10973;46.706;12.340;2023-01-29T07:31:10;87727.44;;;-8.08;51.78
21623;BME280;10973;46.706;12.340;2023-01-29T07:33:38;87727.44;;;-8.03;51.71
21623;BME280;10973;46.706;12.340;2023-01-29T07:36:10;87718.50;;;-8.01;51.73
21623;BME280;10973;46.706;12.340;2023-01-29T07:38:37;87720.56;;;-7.97;52.10
21623;BME280;10973;46.706;12.340;2023-01-29T07:41:04;87713.91;;;-7.99;52.56
21623;BME280;10973;46.706;12.340;2023-01-29T07:43:32;87706.22;;;-7.93;52.31
21623;BME280;10973;46.706;12.340;2023-01-29T07:46:03;87706.72;;;-7.97;52.28
21623;BME280;10973;46.706;12.340;2023-01-29T07:48:31;87706.47;;;-7.90;52.06
21623;BME280;10973;46.706;12.340;2023-01-29T07:50:58;87701.63;;;-7.86;53.09
21623;BME280;10973;46.706;12.340;2023-01-29T07:53:27;87705.22;;;-7.77;52.80
21623;BME280;10973;46.706;12.340;2023-01-29T07:55:55;87710.06;;;-7.66;52.84
21623;BME280;10973;46.706;12.340;2023-01-29T07:58:22;87710.31;;;-7.62;53.06
21623;BME280;10973;46.706;12.340;2023-01-29T08:00:49;87710.59;;;-7.59;53.71
21623;BME280;10973;46.706;12.340;2023-01-29T08:03:18;87705.19;;;-7.52;52.89
21623;BME280;10973;46.706;12.340;2023-01-29T08:05:46;87714.13;;;-7.40;53.00
21623;BME280;10973;46.706;12.340;2023-01-29T08:08:14;87712.34;;;-7.39;53.75
21623;BME280;10973;46.706;12.340;2023-01-29T08:10:41;87703.59;;;-7.28;53.25
21623;BME280;10973;46.706;12.340;2023-01-29T08:13:09;87699.00;;;-7.21;53.24
21623;BME280;10973;46.706;12.340;2023-01-29T08:15:36;87702.03;;;-7.09;53.03
21623;BME280;10973;46.706;12.340;2023-01-29T08:18:24;87700.22;;;-7.03;53.39
21623;BME280;10973;46.706;12.340;2023-01-29T08:20:51;87710.69;;;-6.95;53.16
21623;BME280;10973;46.706;12.340;2023-01-29T08:23:19;87712.97;;;-6.83;53.70
21623;BME280;10973;46.706;12.340;2023-01-29T08:25:46;87711.66;;;-6.71;53.30
21623;BME280;10973;46.706;12.340;2023-01-29T08:28:17;87710.59;;;-6.65;53.65
21623;BME280;10973;46.706;12.340;2023-01-29T08:30:44;87707.94;;;-6.49;53.22
21623;BME280;10973;46.706;12.340;2023-01-29T08:33:12;87701.00;;;-6.44;53.41
21623;BME280;10973;46.706;12.340;2023-01-29T08:35:39;87698.44;;;-6.39;53.29
21623;BME280;10973;46.706;12.340;2023-01-29T08:38:07;87701.72;;;-6.33;53.33
21623;BME280;10973;46.706;12.340;2023-01-29T08:40:35;87705.00;;;-6.18;53.59
21623;BME280;10973;46.706;12.340;2023-01-29T08:43:05;87700.03;;;-6.04;53.25
21623;BME280;10973;46.706;12.340;2023-01-29T08:45:39;87686.34;;;-5.95;54.12
21623;BME280;10973;46.706;12.340;2023-01-29T08:48:08;87685.22;;;-5.84;54.21
21623;BME280;10973;46.706;12.340;2023-01-29T08:50:36;87689.06;;;-5.81;54.61
21623;BME280;10973;46.706;12.340;2023-01-29T08:53:06;87682.06;;;-5.70;53.99
21623;BME280;10973;46.706;12.340;2023-01-29T08:55:45;87682.53;;;-5.63;54.06
21623;BME280;10973;46.706;12.340;2023-01-29T08:58:12;87687.28;;;-5.52;53.80
21623;BME280;10973;46.706;12.340;2023-01-29T09:00:39;87691.13;;;-5.49;54.56
21623;BME280;10973;46.706;12.340;2023-01-29T09:03:07;87681.03;;;-5.41;54.20
21623;BME280;10973;46.706;12.340;2023-01-29T09:05:36;87685.06;;;-5.30;54.34
21623;BME280;10973;46.706;12.340;2023-01-29T09:08:05;87681.66;;;-5.25;54.33
21623;BME280;10973;46.706;12.340;2023-01-29T09:10:34;87685.19;;;-5.16;54.53
21623;BME280;10973;46.706;12.340;2023-01-29T09:13:01;87690.00;;;-5.10;54.73
21623;BME280;10973;46.706;12.340;2023-01-29T09:15:29;87684.75;;;-4.99;54.36
21623;BME280;10973;46.706;12.340;2023-01-29T09:17:56;87691.81;;;-4.86;54.06
21623;BME280;10973;46.706;12.340;2023-01-29T09:20:23;87687.53;;;-4.72;54.18
21623;BME280;10973;46.706;12.340;2023-01-29T09:22:51;87686.13;;;-4.60;53.97
21623;BME280;10973;46.706;12.340;2023-01-29T09:25:18;87683.94;;;-4.48;53.87
21623;BME280;10973;46.706;12.340;2023-01-29T09:27:45;87679.91;;;-4.35;54.17
21623;BME280;10973;46.706;12.340;2023-01-29T09:30:13;87678.75;;;-4.24;54.40
21623;BME280;10973;46.706;12.340;2023-01-29T09:32:40;87678.63;;;-4.14;54.09
21623;BME280;10973;46.706;12.340;2023-01-29T09:35:23;87680.78;;;-4.02;54.35
21623;BME280;10973;46.706;12.340;2023-01-29T09:37:51;87682.28;;;-4.01;54.62
21623;BME280;10973;46.706;12.340;2023-01-29T09:40:54;87686.00;;;-3.89;54.59
21623;BME280;10973;46.706;12.340;2023-01-29T09:46:37;87675.59;;;-3.65;54.70
21623;BME280;10973;46.706;12.340;2023-01-29T09:49:29;87676.13;;;-3.49;54.71
21623;BME280;10973;46.706;12.340;2023-01-29T09:52:10;87674.94;;;-3.38;54.33
21623;BME280;10973;46.706;12.340;2023-01-29T09:54:52;87668.59;;;-3.27;54.04
21623;BME280;10973;46.706;12.340;2023-01-29T09:57:33;87657.06;;;-3.16;54.02
21623;BME280;10973;46.706;12.340;2023-01-29T10:00:06;87657.16;;;-3.08;53.98
21623;BME280;10973;46.706;12.340;2023-01-29T10:14:37;87645.84;;;-2.66;52.87
21623;BME280;10973;46.706;12.340;2023-01-29T10:23:17;87631.72;;;-2.55;53.65
21623;BME280;10973;46.706;12.340;2023-01-29T10:25:48;87625.69;;;-2.50;53.92
21623;BME280;10973;46.706;12.340;2023-01-29T10:28:41;87615.25;;;-2.45;54.20
21623;BME280;10973;46.706;12.340;2023-01-29T10:31:31;87612.31;;;-2.39;54.41
21623;BME280;10973;46.706;12.340;2023-01-29T10:36:48;87597.53;;;-2.25;54.08
21623;BME280;10973;46.706;12.340;2023-01-29T10:39:24;87591.50;;;-2.20;54.07
21623;BME280;10973;46.706;12.340;2023-01-29T10:42:03;87597.34;;;-2.14;54.18
21623;BME280;10973;46.706;12.340;2023-01-29T10:50:54;87578.28;;;-2.05;54.69
21623;BME280;10973;46.706;12.340;2023-01-29T10:53:55;87583.50;;;-1.96;54.46
21623;BME280;10973;46.706;12.340;2023-01-29T11:01:58;87559.34;;;-1.78;55.03
21623;BME280;10973;46.706;12.340;2023-01-29T11:04:29;87544.97;;;-1.71;54.98
21623;BME280;10973;46.706;12.340;2023-01-29T11:06:58;87544.38;;;-1.68;55.11
21623;BME280;10973;46.706;12.340;2023-01-29T11:09:38;87538.78;;;-1.61;55.28
21623;BME280;10973;46.706;12.340;2023-01-29T11:12:18;87535.63;;;-1.58;54.97
21623;BME280;10973;46.706;12.340;2023-01-29T11:15:13;87535.50;;;-1.53;55.18
21623;BME280;10973;46.706;12.340;2023-01-29T11:18:11;87534.16;;;-1.51;55.62
21623;BME280;10973;46.706;12.340;2023-01-29T11:20:42;87526.56;;;-1.47;55.54
21623;BME280;10973;46.706;12.340;2023-01-29T11:23:26;87529.78;;;-1.41;56.02
21623;BME280;10973;46.706;12.340;2023-01-29T11:25:57;87522.19;;;-1.38;55.86
21623;BME280;10973;46.706;12.340;2023-01-29T11:28:46;87524.66;;;-1.33;55.73
21623;BME280;10973;46.706;12.340;2023-01-29T11:31:26;87515.56;;;-1.22;55.84
21623;BME280;10973;46.706;12.340;2023-01-29T11:34:12;87516.97;;;-1.16;56.58
21623;BME280;10973;46.706;12.340;2023-01-29T11:36:39;87511.66;;;-1.11;56.40
21623;BME280;10973;46.706;12.340;2023-01-29T11:39:21;87522.19;;;-1.07;56.08
21623;BME280;10973;46.706;12.340;2023-01-29T11:41:53;87518.41;;;-1.01;56.04
21623;BME280;10973;46.706;12.340;2023-01-29T11:44:32;87518.84;;;-0.99;55.69
21623;BME280;10973;46.706;12.340;2023-01-29T11:47:28;87508.38;;;-0.94;56.13
21623;BME280;10973;46.706;12.340;2023-01-29T11:50:00;87503.84;;;-0.89;56.10
21623;BME280;10973;46.706;12.340;2023-01-29T11:52:39;87501.25;;;-0.89;56.62
21623;BME280;10973;46.706;12.340;2023-01-29T11:55:21;87508.13;;;-0.76;56.71
21623;BME280;10973;46.706;12.340;2023-01-29T11:57:55;87502.06;;;-0.71;56.85
21623;BME280;10973;46.706;12.340;2023-01-29T12:00:31;87500.97;;;-0.70;56.71
21623;BME280;10973;46.706;12.340;2023-01-29T12:06:33;87490.38;;;-0.43;56.13
21623;BME280;10973;46.706;12.340;2023-01-29T12:09:14;87491.44;;;-0.18;55.58
21623;BME280;10973;46.706;12.340;2023-01-29T12:11:43;87481.78;;;0.51;55.65
21623;BME280;10973;46.706;12.340;2023-01-29T12:14:28;87483.88;;;1.91;51.80
21623;BME280;10973;46.706;12.340;2023-01-29T12:19:51;87472.72;;;4.89;44.95
21623;BME280;10973;46.706;12.340;2023-01-29T12:28:13;87454.91;;;8.06;36.70
21623;BME280;10973;46.706;12.340;2023-01-29T12:33:57;87456.47;;;8.37;36.13
21623;BME280;10973;46.706;12.340;2023-01-29T12:36:39;87449.38;;;7.88;35.97
21623;BME280;10973;46.706;12.340;2023-01-29T12:39:15;87450.00;;;7.14;36.92
21623;BME280;10973;46.706;12.340;2023-01-29T12:42:02;87459.41;;;6.38;37.81
21623;BME280;10973;46.706;12.340;2023-01-29T12:45:07;87464.84;;;5.33;38.82
21623;BME280;10973;46.706;12.340;2023-01-29T12:48:00;87458.19;;;4.49;40.98
21623;BME280;10973;46.706;12.340;2023-01-29T12:50:34;87458.16;;;3.81;42.00
21623;BME280;10973;46.706;12.340;2023-01-29T12:55:43;87477.91;;;2.65;44.60
21623;BME280;10973;46.706;12.340;2023-01-29T12:58:18;87464.28;;;2.14;45.84
21623;BME280;10973;46.706;12.340;2023-01-29T13:00:53;87471.91;;;1.78;46.84
21623;BME280;10973;46.706;12.340;2023-01-29T13:03:33;87464.00;;;1.45;47.68
21623;BME280;10973;46.706;12.340;2023-01-29T13:06:11;87460.19;;;1.14;48.57
21623;BME280;10973;46.706;12.340;2023-01-29T13:08:47;87456.97;;;0.88;48.85
21623;BME280;10973;46.706;12.340;2023-01-29T13:11:23;87460.09;;;0.64;49.40
21623;BME280;10973;46.706;12.340;2023-01-29T13:14:00;87466.59;;;0.41;50.51
21623;BME280;10973;46.706;12.340;2023-01-29T13:16:42;87458.38;;;0.22;51.14
21623;BME280;10973;46.706;12.340;2023-01-29T13:19:37;87462.06;;;0.04;51.42
21623;BME280;10973;46.706;12.340;2023-01-29T13:22:35;87464.50;;;-0.09;51.74
21623;BME280;10973;46.706;12.340;2023-01-29T13:25:05;87465.09;;;-0.20;52.08
21623;BME280;10973;46.706;12.340;2023-01-29T13:27:35;87470.88;;;-0.32;52.16
21623;BME280;10973;46.706;12.340;2023-01-29T13:30:04;87465.25;;;-0.34;52.57
21623;BME280;10973;46.706;12.340;2023-01-29T13:32:34;87465.44;;;-0.39;52.21
21623;BME280;10973;46.706;12.340;2023-01-29T13:35:11;87458.84;;;-0.45;52.36
21623;BME280;10973;46.706;12.340;2023-01-29T13:37:52;87469.97;;;-0.53;52.79
21623;BME280;10973;46.706;12.340;2023-01-29T13:40:28;87467.84;;;-0.59;53.17
21623;BME280;10973;46.706;12.340;2023-01-29T13:42:57;87467.66;;;-0.63;53.15
21623;BME280;10973;46.706;12.340;2023-01-29T13:45:41;87472.53;;;-0.70;53.08
21623;BME280;10973;46.706;12.340;2023-01-29T13:48:26;87472.97;;;-0.77;53.34
21623;BME280;10973;46.706;12.340;2023-01-29T13:51:01;87472.81;;;-0.80;53.69
21623;BME280;10973;46.706;12.340;2023-01-29T13:53:39;87481.47;;;-0.85;53.63
21623;BME280;10973;46.706;12.340;2023-01-29T13:59:04;87480.72;;;-0.85;53.66
21623;BME280;10973;46.706;12.340;2023-01-29T14:04:25;87481.47;;;-0.93;53.88
21623;BME280;10973;46.706;12.340;2023-01-29T14:07:00;87482.06;;;-0.96;53.97
21623;BME280;10973;46.706;12.340;2023-01-29T14:12:32;87480.84;;;-0.99;53.85
21623;BME280;10973;46.706;12.340;2023-01-29T14:15:27;87477.59;;;-1.04;54.05
21623;BME280;10973;46.706;12.340;2023-01-29T14:18:17;87468.50;;;-1.02;54.16
21623;BME280;10973;46.706;12.340;2023-01-29T14:21:21;87461.81;;;-1.03;54.01
21623;BME280;10973;46.706;12.340;2023-01-29T14:23:51;87467.44;;;-1.01;53.98
21623;BME280;10973;46.706;12.340;2023-01-29T14:26:33;87464.41;;;-0.94;54.02
21623;BME280;10973;46.706;12.340;2023-01-29T14:29:24;87465.34;;;-0.90;53.92
21623;BME280;10973;46.706;12.340;2023-01-29T14:34:47;87462.75;;;-0.90;53.78
21623;BME280;10973;46.706;12.340;2023-01-29T14:39:49;87475.81;;;-0.95;53.69
21623;BME280;10973;46.706;12.340;2023-01-29T14:42:23;87478.13;;;-0.94;53.79
21623;BME280;10973;46.706;12.340;2023-01-29T14:45:28;87475.41;;;-0.89;54.06
21623;BME280;10973;46.706;12.340;2023-01-29T14:50:46;87479.34;;;-0.91;53.70
21623;BME280;10973;46.706;12.340;2023-01-29T14:59:19;87475.78;;;-1.04;53.65
21623;BME280;10973;46.706;12.340;2023-01-29T15:01:54;87475.03;;;-1.04;54.30
21623;BME280;10973;46.706;12.340;2023-01-29T15:04:45;87473.97;;;-1.03;54.10